sensor_id;sensor_type;location;lat;lon;timestamp;pressure;altitude;pressure_sealevel;temperature
78961;BMP280;68362;45.970;12.646;2023-04-01T00:00:34;100097.28;;;8.67
78961;BMP280;68362;45.970;12.646;2023-04-01T00:01:49;100093.16;;;8.59
78961;BMP280;68362;45.970;12.646;2023-04-01T00:02:51;100100.84;;;8.72
78961;BMP280;68362;45.970;12.646;2023-04-01T00:03:53;100102.78;;;8.59
78961;BMP280;68362;45.970;12.646;2023-04-01T00:04:56;100093.66;;;8.68
78961;BMP280;68362;45.970;12.646;2023-04-01T00:05:59;100090.63;;;8.71
78961;BMP280;68362;45.970;12.646;2023-04-01T00:07:01;100090.81;;;8.69
78961;BMP280;68362;45.970;12.646;2023-04-01T00:08:03;100094.03;;;8.71
78961;BMP280;68362;45.970;12.646;2023-04-01T00:09:06;100088.84;;;8.65
78961;BMP280;68362;45.970;12.646;2023-04-01T00:10:10;100095.25;;;8.69
78961;BMP280;68362;45.970;12.646;2023-04-01T00:11:13;100097.63;;;8.34
78961;BMP280;68362;45.970;12.646;2023-04-01T00:12:15;100097.81;;;8.57
78961;BMP280;68362;45.970;12.646;2023-04-01T00:13:18;100099.53;;;8.45
78961;BMP280;68362;45.970;12.646;2023-04-01T00:14:20;100102.59;;;8.42
78961;BMP280;68362;45.970;12.646;2023-04-01T00:15:22;100102.66;;;8.54
78961;BMP280;68362;45.970;12.646;2023-04-01T00:16:24;100098.00;;;8.56
78961;BMP280;68362;45.970;12.646;2023-04-01T00:17:26;100095.00;;;8.52
78961;BMP280;68362;45.970;12.646;2023-04-01T00:18:29;100094.28;;;8.45
78961;BMP280;68362;45.970;12.646;2023-04-01T00:19:31;100094.56;;;8.18
78961;BMP280;68362;45.970;12.646;2023-04-01T00:20:34;100089.78;;;8.09
78961;BMP280;68362;45.970;12.646;2023-04-01T00:21:36;100091.13;;;7.93
78961;BMP280;68362;45.970;12.646;2023-04-01T00:22:38;100080.88;;;7.66
78961;BMP280;68362;45.970;12.646;2023-04-01T00:23:40;100090.03;;;7.75
78961;BMP280;68362;45.970;12.646;2023-04-01T00:24:43;100084.47;;;7.72
78961;BMP280;68362;45.970;12.646;2023-04-01T00:25:46;100092.91;;;7.67
78961;BMP280;68362;45.970;12.646;2023-04-01T00:26:49;100086.53;;;7.63
78961;BMP280;68362;45.970;12.646;2023-04-01T00:27:52;100088.84;;;7.78
78961;BMP280;68362;45.970;12.646;2023-04-01T00:28:54;100083.72;;;7.58
78961;BMP280;68362;45.970;12.646;2023-04-01T00:29:56;100089.75;;;7.59
78961;BMP280;68362;45.970;12.646;2023-04-01T00:30:58;100093.81;;;7.55
78961;BMP280;68362;45.970;12.646;2023-04-01T00:32:00;100089.31;;;7.68
78961;BMP280;68362;45.970;12.646;2023-04-01T00:33:03;100087.09;;;7.65
78961;BMP280;68362;45.970;12.646;2023-04-01T00:34:05;100082.56;;;7.54
78961;BMP280;68362;45.970;12.646;2023-04-01T00:35:07;100088.06;;;7.71
78961;BMP280;68362;45.970;12.646;2023-04-01T00:36:18;100076.25;;;7.68
78961;BMP280;68362;45.970;12.646;2023-04-01T00:37:21;100083.38;;;7.55
78961;BMP280;68362;45.970;12.646;2023-04-01T00:38:23;100081.31;;;7.63
78961;BMP280;68362;45.970;12.646;2023-04-01T00:39:25;100078.03;;;7.68
78961;BMP280;68362;45.970;12.646;2023-04-01T00:40:41;100078.19;;;7.41
78961;BMP280;68362;45.970;12.646;2023-04-01T00:41:43;100080.44;;;7.69
78961;BMP280;68362;45.970;12.646;2023-04-01T00:42:46;100076.72;;;7.84
78961;BMP280;68362;45.970;12.646;2023-04-01T00:43:52;100080.53;;;7.88
78961;BMP280;68362;45.970;12.646;2023-04-01T00:44:55;100080.03;;;7.97
78961;BMP280;68362;45.970;12.646;2023-04-01T00:45:57;100090.75;;;8.14
78961;BMP280;68362;45.970;12.646;2023-04-01T00:47:00;100092.66;;;8.25
78961;BMP280;68362;45.970;12.646;2023-04-01T00:49:20;100096.59;;;8.35
78961;BMP280;68362;45.970;12.646;2023-04-01T00:50:24;100099.97;;;8.42
78961;BMP280;68362;45.970;12.646;2023-04-01T00:51:28;100097.91;;;8.44
78961;BMP280;68362;45.970;12.646;2023-04-01T00:52:31;100097.38;;;8.42
78961;BMP280;68362;45.970;12.646;2023-04-01T00:53:38;100102.28;;;8.50
78961;BMP280;68362;45.970;12.646;2023-04-01T00:54:46;100091.84;;;8.50
78961;BMP280;68362;45.970;12.646;2023-04-01T00:55:55;100098.31;;;8.04
78961;BMP280;68362;45.970;12.646;2023-04-01T00:57:08;100100.13;;;7.97
78961;BMP280;68362;45.970;12.646;2023-04-01T00:58:14;100095.09;;;8.02
78961;BMP280;68362;45.970;12.646;2023-04-01T00:59:23;100096.94;;;8.20
78961;BMP280;68362;45.970;12.646;2023-04-01T01:00:26;100104.16;;;8.24
78961;BMP280;68362;45.970;12.646;2023-04-01T01:01:29;100107.91;;;7.79
78961;BMP280;68362;45.970;12.646;2023-04-01T01:02:33;100110.84;;;7.19
78961;BMP280;68362;45.970;12.646;2023-04-01T01:03:36;100117.97;;;6.92
78961;BMP280;68362;45.970;12.646;2023-04-01T01:04:39;100119.56;;;6.93
78961;BMP280;68362;45.970;12.646;2023-04-01T01:09:54;100123.13;;;7.05
78961;BMP280;68362;45.970;12.646;2023-04-01T01:10:58;100118.16;;;6.97
78961;BMP280;68362;45.970;12.646;2023-04-01T01:12:23;100121.78;;;6.89
78961;BMP280;68362;45.970;12.646;2023-04-01T01:13:40;100128.97;;;6.94
78961;BMP280;68362;45.970;12.646;2023-04-01T01:15:23;100121.09;;;7.14
78961;BMP280;68362;45.970;12.646;2023-04-01T01:16:32;100122.81;;;7.40
78961;BMP280;68362;45.970;12.646;2023-04-01T01:18:09;100118.00;;;7.37
78961;BMP280;68362;45.970;12.646;2023-04-01T01:19:32;100109.47;;;7.55
78961;BMP280;68362;45.970;12.646;2023-04-01T01:27:57;100100.84;;;7.54
78961;BMP280;68362;45.970;12.646;2023-04-01T01:30:15;100096.19;;;7.88
78961;BMP280;68362;45.970;12.646;2023-04-01T01:31:24;100101.66;;;7.86
78961;BMP280;68362;45.970;12.646;2023-04-01T01:32:34;100104.59;;;7.58
78961;BMP280;68362;45.970;12.646;2023-04-01T01:36:19;100102.75;;;7.34
78961;BMP280;68362;45.970;12.646;2023-04-01T01:37:25;100109.75;;;6.88
78961;BMP280;68362;45.970;12.646;2023-04-01T01:38:31;100110.38;;;6.64
78961;BMP280;68362;45.970;12.646;2023-04-01T01:39:36;100108.59;;;6.58
78961;BMP280;68362;45.970;12.646;2023-04-01T01:40:41;100106.19;;;6.69
78961;BMP280;68362;45.970;12.646;2023-04-01T01:41:46;100094.94;;;6.56
78961;BMP280;68362;45.970;12.646;2023-04-01T01:42:55;100101.72;;;6.83
78961;BMP280;68362;45.970;12.646;2023-04-01T01:43:59;100092.41;;;7.07
78961;BMP280;68362;45.970;12.646;2023-04-01T01:45:04;100095.59;;;7.22
78961;BMP280;68362;45.970;12.646;2023-04-01T01:46:13;100088.50;;;7.30
78961;BMP280;68362;45.970;12.646;2023-04-01T01:47:16;100093.31;;;7.39
78961;BMP280;68362;45.970;12.646;2023-04-01T01:48:19;100088.78;;;7.53
78961;BMP280;68362;45.970;12.646;2023-04-01T01:49:22;100092.34;;;7.59
78961;BMP280;68362;45.970;12.646;2023-04-01T01:50:26;100102.28;;;7.43
78961;BMP280;68362;45.970;12.646;2023-04-01T01:51:28;100090.38;;;7.09
78961;BMP280;68362;45.970;12.646;2023-04-01T01:52:30;100099.72;;;6.92
78961;BMP280;68362;45.970;12.646;2023-04-01T01:53:32;100095.69;;;6.96
78961;BMP280;68362;45.970;12.646;2023-04-01T01:54:35;100093.44;;;6.99
78961;BMP280;68362;45.970;12.646;2023-04-01T01:55:43;100095.38;;;7.17
78961;BMP280;68362;45.970;12.646;2023-04-01T01:56:49;100091.09;;;7.36
78961;BMP280;68362;45.970;12.646;2023-04-01T01:57:52;100090.44;;;7.41
78961;BMP280;68362;45.970;12.646;2023-04-01T01:59:03;100080.94;;;7.53
78961;BMP280;68362;45.970;12.646;2023-04-01T02:00:09;100083.41;;;7.48
78961;BMP280;68362;45.970;12.646;2023-04-01T02:01:17;100080.94;;;7.53
78961;BMP280;68362;45.970;12.646;2023-04-01T02:02:22;100083.56;;;7.53
78961;BMP280;68362;45.970;12.646;2023-04-01T02:03:28;100081.03;;;7.40
78961;BMP280;68362;45.970;12.646;2023-04-01T02:04:31;100079.81;;;7.42
78961;BMP280;68362;45.970;12.646;2023-04-01T02:05:34;100075.88;;;7.27
78961;BMP280;68362;45.970;12.646;2023-04-01T02:06:39;100074.28;;;7.26
78961;BMP280;68362;45.970;12.646;2023-04-01T02:07:49;100079.16;;;7.09
78961;BMP280;68362;45.970;12.646;2023-04-01T02:09:04;100071.13;;;7.10
78961;BMP280;68362;45.970;12.646;2023-04-01T02:10:07;100073.56;;;7.05
78961;BMP280;68362;45.970;12.646;2023-04-01T02:11:12;100079.38;;;7.07
78961;BMP280;68362;45.970;12.646;2023-04-01T02:12:16;100076.75;;;7.07
78961;BMP280;68362;45.970;12.646;2023-04-01T02:13:29;100077.59;;;7.01
78961;BMP280;68362;45.970;12.646;2023-04-01T02:14:43;100079.06;;;6.84
78961;BMP280;68362;45.970;12.646;2023-04-01T02:15:47;100084.88;;;6.79
78961;BMP280;68362;45.970;12.646;2023-04-01T02:16:57;100087.94;;;6.69
78961;BMP280;68362;45.970;12.646;2023-04-01T02:17:59;100083.31;;;6.58
78961;BMP280;68362;45.970;12.646;2023-04-01T02:19:04;100081.13;;;6.68
78961;BMP280;68362;45.970;12.646;2023-04-01T02:20:13;100077.28;;;6.78
78961;BMP280;68362;45.970;12.646;2023-04-01T02:21:18;100081.66;;;6.84
78961;BMP280;68362;45.970;12.646;2023-04-01T02:22:25;100075.00;;;6.94
78961;BMP280;68362;45.970;12.646;2023-04-01T02:23:28;100081.88;;;6.76
78961;BMP280;68362;45.970;12.646;2023-04-01T02:24:32;100078.88;;;6.79
78961;BMP280;68362;45.970;12.646;2023-04-01T02:25:36;100081.28;;;6.73
78961;BMP280;68362;45.970;12.646;2023-04-01T02:26:40;100078.13;;;6.58
78961;BMP280;68362;45.970;12.646;2023-04-01T02:27:43;100079.09;;;6.64
78961;BMP280;68362;45.970;12.646;2023-04-01T02:28:46;100087.72;;;6.78
78961;BMP280;68362;45.970;12.646;2023-04-01T02:29:51;100084.50;;;6.76
78961;BMP280;68362;45.970;12.646;2023-04-01T02:30:53;100077.03;;;6.86
78961;BMP280;68362;45.970;12.646;2023-04-01T02:31:56;100078.88;;;6.79
78961;BMP280;68362;45.970;12.646;2023-04-01T02:32:58;100070.84;;;6.87
78961;BMP280;68362;45.970;12.646;2023-04-01T02:34:02;100068.22;;;6.87
78961;BMP280;68362;45.970;12.646;2023-04-01T02:35:10;100065.63;;;6.87
78961;BMP280;68362;45.970;12.646;2023-04-01T02:36:14;100058.38;;;6.89
78961;BMP280;68362;45.970;12.646;2023-04-01T02:37:16;100060.53;;;6.98
78961;BMP280;68362;45.970;12.646;2023-04-01T02:38:19;100057.31;;;7.03
78961;BMP280;68362;45.970;12.646;2023-04-01T02:39:21;100046.03;;;7.09
78961;BMP280;68362;45.970;12.646;2023-04-01T02:40:24;100048.66;;;7.09
78961;BMP280;68362;45.970;12.646;2023-04-01T02:41:26;100047.03;;;7.15
78961;BMP280;68362;45.970;12.646;2023-04-01T02:42:28;100049.63;;;7.21
78961;BMP280;68362;45.970;12.646;2023-04-01T02:43:30;100051.00;;;7.24
78961;BMP280;68362;45.970;12.646;2023-04-01T02:44:32;100053.19;;;7.27
78961;BMP280;68362;45.970;12.646;2023-04-01T02:45:34;100053.00;;;7.29
78961;BMP280;68362;45.970;12.646;2023-04-01T02:46:37;100046.13;;;7.34
78961;BMP280;68362;45.970;12.646;2023-04-01T02:47:39;100048.91;;;7.33
78961;BMP280;68362;45.970;12.646;2023-04-01T02:48:41;100038.91;;;7.36
78961;BMP280;68362;45.970;12.646;2023-04-01T02:49:43;100041.91;;;7.33
78961;BMP280;68362;45.970;12.646;2023-04-01T02:50:45;100033.88;;;7.35
78961;BMP280;68362;45.970;12.646;2023-04-01T02:51:47;100043.69;;;7.33
78961;BMP280;68362;45.970;12.646;2023-04-01T02:52:50;100046.06;;;7.41
78961;BMP280;68362;45.970;12.646;2023-04-01T02:53:52;100042.06;;;7.45
78961;BMP280;68362;45.970;12.646;2023-04-01T02:54:54;100043.03;;;7.44
78961;BMP280;68362;45.970;12.646;2023-04-01T02:55:56;100048.78;;;7.28
78961;BMP280;68362;45.970;12.646;2023-04-01T02:56:58;100051.53;;;7.33
78961;BMP280;68362;45.970;12.646;2023-04-01T02:58:00;100046.75;;;7.30
78961;BMP280;68362;45.970;12.646;2023-04-01T02:59:03;100046.72;;;7.36
78961;BMP280;68362;45.970;12.646;2023-04-01T03:00:05;100045.75;;;7.31
78961;BMP280;68362;45.970;12.646;2023-04-01T03:01:13;100051.38;;;7.28
78961;BMP280;68362;45.970;12.646;2023-04-01T03:02:15;100056.81;;;7.26
78961;BMP280;68362;45.970;12.646;2023-04-01T03:03:18;100052.78;;;7.30
78961;BMP280;68362;45.970;12.646;2023-04-01T03:04:20;100054.63;;;7.23
78961;BMP280;68362;45.970;12.646;2023-04-01T03:05:22;100060.72;;;7.10
78961;BMP280;68362;45.970;12.646;2023-04-01T03:06:24;100059.78;;;6.85
78961;BMP280;68362;45.970;12.646;2023-04-01T03:07:27;100059.25;;;6.56
78961;BMP280;68362;45.970;12.646;2023-04-01T03:08:28;100059.31;;;6.43
78961;BMP280;68362;45.970;12.646;2023-04-01T03:09:31;100056.88;;;6.41
78961;BMP280;68362;45.970;12.646;2023-04-01T03:10:33;100063.63;;;6.62
78961;BMP280;68362;45.970;12.646;2023-04-01T03:11:35;100064.91;;;6.53
78961;BMP280;68362;45.970;12.646;2023-04-01T03:12:37;100066.28;;;6.56
78961;BMP280;68362;45.970;12.646;2023-04-01T03:13:39;100064.41;;;6.83
78961;BMP280;68362;45.970;12.646;2023-04-01T03:14:41;100064.38;;;6.89
78961;BMP280;68362;45.970;12.646;2023-04-01T03:15:43;100070.56;;;7.02
78961;BMP280;68362;45.970;12.646;2023-04-01T03:16:45;100062.69;;;7.08
78961;BMP280;68362;45.970;12.646;2023-04-01T03:17:47;100064.72;;;7.06
78961;BMP280;68362;45.970;12.646;2023-04-01T03:18:49;100058.91;;;6.39
78961;BMP280;68362;45.970;12.646;2023-04-01T03:19:54;100058.06;;;6.65
78961;BMP280;68362;45.970;12.646;2023-04-01T03:20:56;100052.84;;;6.59
78961;BMP280;68362;45.970;12.646;2023-04-01T03:21:58;100055.53;;;6.26
78961;BMP280;68362;45.970;12.646;2023-04-01T03:23:00;100050.06;;;6.27
78961;BMP280;68362;45.970;12.646;2023-04-01T03:24:02;100052.69;;;6.20
78961;BMP280;68362;45.970;12.646;2023-04-01T03:25:06;100047.28;;;6.09
78961;BMP280;68362;45.970;12.646;2023-04-01T03:26:09;100047.72;;;6.26
78961;BMP280;68362;45.970;12.646;2023-04-01T03:27:11;100056.06;;;6.54
78961;BMP280;68362;45.970;12.646;2023-04-01T03:28:14;100052.88;;;6.52
78961;BMP280;68362;45.970;12.646;2023-04-01T03:29:16;100052.03;;;6.71
78961;BMP280;68362;45.970;12.646;2023-04-01T03:30:18;100044.41;;;6.63
78961;BMP280;68362;45.970;12.646;2023-04-01T03:31:20;100051.97;;;6.85
78961;BMP280;68362;45.970;12.646;2023-04-01T03:32:24;100050.00;;;6.73
78961;BMP280;68362;45.970;12.646;2023-04-01T03:33:27;100051.16;;;6.84
78961;BMP280;68362;45.970;12.646;2023-04-01T03:34:29;100052.84;;;6.65
78961;BMP280;68362;45.970;12.646;2023-04-01T03:35:31;100048.88;;;6.43
78961;BMP280;68362;45.970;12.646;2023-04-01T03:36:34;100050.44;;;6.57
78961;BMP280;68362;45.970;12.646;2023-04-01T03:37:36;100054.03;;;6.56
78961;BMP280;68362;45.970;12.646;2023-04-01T03:38:40;100057.47;;;6.57
78961;BMP280;68362;45.970;12.646;2023-04-01T03:39:42;100060.44;;;6.67
78961;BMP280;68362;45.970;12.646;2023-04-01T03:40:45;100065.69;;;6.47
78961;BMP280;68362;45.970;12.646;2023-04-01T03:41:47;100062.66;;;6.63
78961;BMP280;68362;45.970;12.646;2023-04-01T03:42:49;100058.81;;;6.79
78961;BMP280;68362;45.970;12.646;2023-04-01T03:43:53;100057.78;;;6.87
78961;BMP280;68362;45.970;12.646;2023-04-01T03:44:55;100057.38;;;6.90
78961;BMP280;68362;45.970;12.646;2023-04-01T03:45:57;100045.28;;;7.02
78961;BMP280;68362;45.970;12.646;2023-04-01T03:47:00;100048.38;;;6.79
78961;BMP280;68362;45.970;12.646;2023-04-01T03:48:02;100058.09;;;6.52
78961;BMP280;68362;45.970;12.646;2023-04-01T03:49:09;100048.06;;;6.36
78961;BMP280;68362;45.970;12.646;2023-04-01T03:50:13;100043.22;;;6.59
78961;BMP280;68362;45.970;12.646;2023-04-01T03:51:15;100051.66;;;6.61
78961;BMP280;68362;45.970;12.646;2023-04-01T03:52:17;100051.22;;;6.64
78961;BMP280;68362;45.970;12.646;2023-04-01T03:53:19;100049.59;;;6.77
78961;BMP280;68362;45.970;12.646;2023-04-01T03:54:21;100057.56;;;6.88
78961;BMP280;68362;45.970;12.646;2023-04-01T03:55:23;100059.34;;;6.94
78961;BMP280;68362;45.970;12.646;2023-04-01T03:56:26;100065.13;;;7.03
78961;BMP280;68362;45.970;12.646;2023-04-01T03:57:31;100056.91;;;7.06
78961;BMP280;68362;45.970;12.646;2023-04-01T03:58:33;100073.56;;;7.05
78961;BMP280;68362;45.970;12.646;2023-04-01T03:59:35;100070.53;;;7.08
78961;BMP280;68362;45.970;12.646;2023-04-01T04:00:37;100070.75;;;7.07
78961;BMP280;68362;45.970;12.646;2023-04-01T04:01:39;100070.34;;;7.03
78961;BMP280;68362;45.970;12.646;2023-04-01T04:02:41;100069.50;;;7.09
78961;BMP280;68362;45.970;12.646;2023-04-01T04:03:44;100065.97;;;6.97
78961;BMP280;68362;45.970;12.646;2023-04-01T04:04:46;100069.50;;;7.09
78961;BMP280;68362;45.970;12.646;2023-04-01T04:05:49;100068.75;;;7.02
78961;BMP280;68362;45.970;12.646;2023-04-01T04:06:51;100065.97;;;7.04
78961;BMP280;68362;45.970;12.646;2023-04-01T04:07:54;100076.41;;;6.97
78961;BMP280;68362;45.970;12.646;2023-04-01T04:08:56;100070.84;;;6.87
78961;BMP280;68362;45.970;12.646;2023-04-01T04:09:59;100074.41;;;6.92
78961;BMP280;68362;45.970;12.646;2023-04-01T04:11:01;100075.22;;;6.93
78961;BMP280;68362;45.970;12.646;2023-04-01T04:12:03;100069.16;;;7.06
78961;BMP280;68362;45.970;12.646;2023-04-01T04:13:07;100070.03;;;6.80
78961;BMP280;68362;45.970;12.646;2023-04-01T04:14:09;100071.50;;;6.69
78961;BMP280;68362;45.970;12.646;2023-04-01T04:15:11;100064.41;;;6.83
78961;BMP280;68362;45.970;12.646;2023-04-01T04:16:15;100070.03;;;6.86
78961;BMP280;68362;45.970;12.646;2023-04-01T04:17:17;100070.78;;;6.93
78961;BMP280;68362;45.970;12.646;2023-04-01T04:18:19;100070.41;;;6.90
78961;BMP280;68362;45.970;12.646;2023-04-01T04:19:21;100074.38;;;6.99
78961;BMP280;68362;45.970;12.646;2023-04-01T04:20:24;100073.97;;;7.02
78961;BMP280;68362;45.970;12.646;2023-04-01T04:21:26;100082.81;;;7.01
78961;BMP280;68362;45.970;12.646;2023-04-01T04:22:29;100075.25;;;6.86
78961;BMP280;68362;45.970;12.646;2023-04-01T04:23:31;100073.81;;;6.97
78961;BMP280;68362;45.970;12.646;2023-04-01T04:24:35;100072.22;;;6.83
78961;BMP280;68362;45.970;12.646;2023-04-01T04:25:37;100072.22;;;6.89
78961;BMP280;68362;45.970;12.646;2023-04-01T04:26:39;100082.50;;;6.78
78961;BMP280;68362;45.970;12.646;2023-04-01T04:27:41;100084.91;;;6.72
78961;BMP280;68362;45.970;12.646;2023-04-01T04:28:44;100082.50;;;6.78
78961;BMP280;68362;45.970;12.646;2023-04-01T04:29:46;100082.88;;;6.88
78961;BMP280;68362;45.970;12.646;2023-04-01T04:30:48;100078.63;;;6.93
78961;BMP280;68362;45.970;12.646;2023-04-01T04:31:50;100082.44;;;6.91
78961;BMP280;68362;45.970;12.646;2023-04-01T04:32:52;100086.53;;;6.80
78961;BMP280;68362;45.970;12.646;2023-04-01T04:33:54;100074.59;;;6.91
78961;BMP280;68362;45.970;12.646;2023-04-01T04:34:57;100073.22;;;6.82
78961;BMP280;68362;45.970;12.646;2023-04-01T04:36:00;100085.25;;;6.83
78961;BMP280;68362;45.970;12.646;2023-04-01T04:37:02;100077.50;;;6.69
78961;BMP280;68362;45.970;12.646;2023-04-01T04:38:04;100077.13;;;6.53
78961;BMP280;68362;45.970;12.646;2023-04-01T04:39:06;100082.34;;;6.33
78961;BMP280;68362;45.970;12.646;2023-04-01T04:40:08;100082.13;;;6.61
78961;BMP280;68362;45.970;12.646;2023-04-01T04:41:15;100077.28;;;6.64
78961;BMP280;68362;45.970;12.646;2023-04-01T04:42:19;100087.34;;;6.54
78961;BMP280;68362;45.970;12.646;2023-04-01T04:43:21;100083.28;;;6.65
78961;BMP280;68362;45.970;12.646;2023-04-01T04:44:23;100083.72;;;6.62
78961;BMP280;68362;45.970;12.646;2023-04-01T04:45:26;100090.59;;;6.43
78961;BMP280;68362;45.970;12.646;2023-04-01T04:46:28;100087.34;;;6.54
78961;BMP280;68362;45.970;12.646;2023-04-01T04:47:30;100087.94;;;6.56
78961;BMP280;68362;45.970;12.646;2023-04-01T04:48:33;100087.16;;;6.49
78961;BMP280;68362;45.970;12.646;2023-04-01T04:49:35;100091.16;;;6.58
78961;BMP280;68362;45.970;12.646;2023-04-01T04:50:37;100088.53;;;6.58
78961;BMP280;68362;45.970;12.646;2023-04-01T04:51:39;100096.94;;;6.67
78961;BMP280;68362;45.970;12.646;2023-04-01T04:52:41;100096.38;;;6.71
78961;BMP280;68362;45.970;12.646;2023-04-01T04:53:44;100101.19;;;6.61
78961;BMP280;68362;45.970;12.646;2023-04-01T04:54:46;100098.00;;;6.19
78961;BMP280;68362;45.970;12.646;2023-04-01T04:55:49;100099.16;;;5.84
78961;BMP280;68362;45.970;12.646;2023-04-01T04:56:52;100105.34;;;5.63
78961;BMP280;68362;45.970;12.646;2023-04-01T04:57:54;100108.38;;;6.00
78961;BMP280;68362;45.970;12.646;2023-04-01T04:58:57;100111.19;;;6.18
78961;BMP280;68362;45.970;12.646;2023-04-01T04:59:59;100113.03;;;6.31
78961;BMP280;68362;45.970;12.646;2023-04-01T05:01:20;100111.00;;;6.33
78961;BMP280;68362;45.970;12.646;2023-04-01T05:02:22;100110.81;;;6.41
78961;BMP280;68362;45.970;12.646;2023-04-01T05:03:24;100112.00;;;6.45
78961;BMP280;68362;45.970;12.646;2023-04-01T05:04:26;100114.03;;;6.10
78961;BMP280;68362;45.970;12.646;2023-04-01T05:05:28;100110.94;;;5.73
78961;BMP280;68362;45.970;12.646;2023-04-01T05:06:30;100113.75;;;5.71
78961;BMP280;68362;45.970;12.646;2023-04-01T05:07:33;100115.63;;;6.04
78961;BMP280;68362;45.970;12.646;2023-04-01T05:08:36;100116.63;;;5.96
78961;BMP280;68362;45.970;12.646;2023-04-01T05:09:39;100119.44;;;5.95
78961;BMP280;68362;45.970;12.646;2023-04-01T05:10:41;100113.81;;;6.11
78961;BMP280;68362;45.970;12.646;2023-04-01T05:11:43;100115.84;;;6.16
78961;BMP280;68362;45.970;12.646;2023-04-01T05:12:45;100118.63;;;6.01
78961;BMP280;68362;45.970;12.646;2023-04-01T05:13:47;100122.31;;;5.59
78961;BMP280;68362;45.970;12.646;2023-04-01T05:14:49;100118.81;;;5.38
78961;BMP280;68362;45.970;12.646;2023-04-01T05:15:51;100122.09;;;5.47
78961;BMP280;68362;45.970;12.646;2023-04-01T05:16:53;100116.16;;;5.73
78961;BMP280;68362;45.970;12.646;2023-04-01T05:17:56;100118.41;;;5.96
78961;BMP280;68362;45.970;12.646;2023-04-01T05:18:58;100119.94;;;5.64
78961;BMP280;68362;45.970;12.646;2023-04-01T05:20:00;100117.28;;;5.51
78961;BMP280;68362;45.970;12.646;2023-04-01T05:21:03;100111.69;;;5.47
78961;BMP280;68362;45.970;12.646;2023-04-01T05:22:06;100122.59;;;5.84
78961;BMP280;68362;45.970;12.646;2023-04-01T05:23:08;100119.75;;;5.72
78961;BMP280;68362;45.970;12.646;2023-04-01T05:24:10;100121.66;;;5.37
78961;BMP280;68362;45.970;12.646;2023-04-01T05:25:12;100122.84;;;5.34
78961;BMP280;68362;45.970;12.646;2023-04-01T05:26:14;100119.72;;;5.59
78961;BMP280;68362;45.970;12.646;2023-04-01T05:27:16;100119.16;;;5.77
78961;BMP280;68362;45.970;12.646;2023-04-01T05:28:19;100132.63;;;5.87
78961;BMP280;68362;45.970;12.646;2023-04-01T05:29:21;100127.84;;;5.97
78961;BMP280;68362;45.970;12.646;2023-04-01T05:30:23;100137.06;;;6.06
78961;BMP280;68362;45.970;12.646;2023-04-01T05:31:25;100139.06;;;6.17
78961;BMP280;68362;45.970;12.646;2023-04-01T05:32:27;100137.09;;;6.13
78961;BMP280;68362;45.970;12.646;2023-04-01T05:33:30;100138.25;;;6.10
78961;BMP280;68362;45.970;12.646;2023-04-01T05:34:32;100140.69;;;6.18
78961;BMP280;68362;45.970;12.646;2023-04-01T05:35:34;100142.66;;;6.03
78961;BMP280;68362;45.970;12.646;2023-04-01T05:36:37;100139.59;;;5.80
78961;BMP280;68362;45.970;12.646;2023-04-01T05:37:39;100148.88;;;5.95
78961;BMP280;68362;45.970;12.646;2023-04-01T05:38:41;100157.09;;;6.06
78961;BMP280;68362;45.970;12.646;2023-04-01T05:39:44;100153.91;;;6.10
78961;BMP280;68362;45.970;12.646;2023-04-01T05:40:46;100151.50;;;6.22
78961;BMP280;68362;45.970;12.646;2023-04-01T05:41:49;100155.31;;;6.33
78961;BMP280;68362;45.970;12.646;2023-04-01T05:42:51;100159.66;;;5.86
78961;BMP280;68362;45.970;12.646;2023-04-01T05:43:53;100151.09;;;6.05
78961;BMP280;68362;45.970;12.646;2023-04-01T05:44:55;100148.69;;;6.17
78961;BMP280;68362;45.970;12.646;2023-04-01T05:45:57;100152.69;;;6.19
78961;BMP280;68362;45.970;12.646;2023-04-01T05:46:59;100150.09;;;6.19
78961;BMP280;68362;45.970;12.646;2023-04-01T05:48:02;100153.28;;;5.95
78961;BMP280;68362;45.970;12.646;2023-04-01T05:49:04;100151.66;;;5.94
78961;BMP280;68362;45.970;12.646;2023-04-01T05:50:08;100158.72;;;6.13
78961;BMP280;68362;45.970;12.646;2023-04-01T05:51:15;100155.53;;;6.25
78961;BMP280;68362;45.970;12.646;2023-04-01T05:52:17;100152.94;;;6.25
78961;BMP280;68362;45.970;12.646;2023-04-01T05:53:19;100157.72;;;6.28
78961;BMP280;68362;45.970;12.646;2023-04-01T05:54:22;100157.91;;;6.19
78961;BMP280;68362;45.970;12.646;2023-04-01T05:55:24;100161.72;;;6.37
78961;BMP280;68362;45.970;12.646;2023-04-01T05:56:26;100155.13;;;6.41
78961;BMP280;68362;45.970;12.646;2023-04-01T05:57:28;100163.34;;;6.31
78961;BMP280;68362;45.970;12.646;2023-04-01T05:58:30;100161.53;;;6.45
78961;BMP280;68362;45.970;12.646;2023-04-01T05:59:32;100163.53;;;6.56
78961;BMP280;68362;45.970;12.646;2023-04-01T06:00:36;100161.75;;;6.57
78961;BMP280;68362;45.970;12.646;2023-04-01T06:01:39;100165.72;;;6.33
78961;BMP280;68362;45.970;12.646;2023-04-01T06:02:41;100162.50;;;6.11
78961;BMP280;68362;45.970;12.646;2023-04-01T06:03:45;100165.56;;;6.34
78961;BMP280;68362;45.970;12.646;2023-04-01T06:04:47;100165.91;;;6.44
78961;BMP280;68362;45.970;12.646;2023-04-01T06:05:49;100160.94;;;6.36
78961;BMP280;68362;45.970;12.646;2023-04-01T06:06:51;100161.53;;;6.45
78961;BMP280;68362;45.970;12.646;2023-04-01T06:08:10;100160.31;;;6.47
78961;BMP280;68362;45.970;12.646;2023-04-01T06:09:17;100167.31;;;6.27
78961;BMP280;68362;45.970;12.646;2023-04-01T06:10:21;100163.09;;;6.06
78961;BMP280;68362;45.970;12.646;2023-04-01T06:11:41;100158.66;;;6.00
78961;BMP280;68362;45.970;12.646;2023-04-01T06:13:09;100164.06;;;5.92
78961;BMP280;68362;45.970;12.646;2023-04-01T06:15:18;100163.06;;;6.00
78961;BMP280;68362;45.970;12.646;2023-04-01T06:16:35;100165.13;;;6.24
78961;BMP280;68362;45.970;12.646;2023-04-01T06:18:01;100165.91;;;6.44
78961;BMP280;68362;45.970;12.646;2023-04-01T06:22:22;100167.56;;;6.52
78961;BMP280;68362;45.970;12.646;2023-04-01T06:28:41;100168.72;;;6.96
78961;BMP280;68362;45.970;12.646;2023-04-01T06:29:50;100179.88;;;7.16